Time;durP1;ratioP1;P1;durP2;ratioP2;P2;SDS_P1;SDS_P2;PMS_P1;PMS_P2;Temp;Humidity;BMP_temperature;BMP_pressure;BME280_temperature;BME280_humidity;BME280_pressure;Samples;Min_cycle;Max_cycle;Signal;HPM_P1;HPM_P2
2022/05/20 00:00:49;;;;;;;1.60;1.20;;;;;;;6.02;70.64;96088.88;6285233;28;20036;-62
2022/05/20 00:03:50;;;;;;;1.58;1.30;;;;;;;6.09;70.20;96095.44;6280784;28;20056;-62
2022/05/20 00:06:55;;;;;;;1.00;1.00;;;;;;;5.93;70.25;96100.72;6278494;28;20151;-62
2022/05/20 00:09:56;;;;;;;1.30;1.20;;;;;;;5.87;70.47;96097.59;6279500;28;20045;-63
2022/05/20 00:13:03;;;;;;;1.20;1.10;;;;;;;6.07;69.33;96107.75;6282894;28;20072;-62
2022/05/20 00:16:04;;;;;;;1.90;0.88;;;;;;;6.04;68.92;96115.75;6276962;28;20119;-62
2022/05/20 00:19:07;;;;;;;1.42;1.20;;;;;;;6.05;68.77;96130.50;6287428;28;20046;-62
2022/05/20 00:22:11;;;;;;;1.15;1.05;;;;;;;5.95;69.33;96134.59;6275846;28;20048;-62
2022/05/20 00:28:36;;;;;;;1.10;1.00;;;;;;;5.99;69.16;96136.06;6259836;28;20540;-62
2022/05/20 00:31:43;;;;;;;1.15;1.05;;;;;;;5.91;69.38;96143.47;6281969;28;20458;-62
2022/05/20 00:34:46;;;;;;;1.30;1.10;;;;;;;5.83;69.66;96152.63;6288354;28;20040;-61
2022/05/20 00:37:47;;;;;;;1.25;1.13;;;;;;;5.81;69.87;96149.25;6282587;28;20055;-62
2022/05/20 00:40:53;;;;;;;1.67;1.20;;;;;;;5.88;69.46;96154.09;6290938;28;20049;-62
2022/05/20 00:43:55;;;;;;;1.75;1.05;;;;;;;5.79;70.13;96171.97;6287335;28;20065;-62
2022/05/20 00:46:59;;;;;;;1.25;1.15;;;;;;;5.92;69.13;96160.84;6288247;28;20060;-62
2022/05/20 00:50:08;;;;;;;1.42;0.95;;;;;;;5.75;69.62;96164.44;6275880;28;20045;-62
2022/05/20 00:53:16;;;;;;;2.13;1.42;;;;;;;5.73;70.15;96189.75;6283788;28;21322;-63
2022/05/20 00:56:26;;;;;;;1.40;1.30;;;;;;;5.69;70.26;96186.50;6281391;28;20442;-62
2022/05/20 00:59:30;;;;;;;2.67;1.23;;;;;;;5.77;70.10;96188.66;6287883;28;20048;-62
2022/05/20 01:02:35;;;;;;;1.90;1.30;;;;;;;5.78;69.78;96188.59;6278405;28;20075;-62
2022/05/20 01:05:39;;;;;;;2.10;1.65;;;;;;;5.89;69.38;96197.56;6286791;28;20057;-62
2022/05/20 01:08:41;;;;;;;1.67;1.10;;;;;;;5.90;69.51;96199.25;6286170;28;20627;-61
2022/05/20 01:11:42;;;;;;;1.65;1.55;;;;;;;5.91;69.12;96206.97;6282825;28;20525;-62
2022/05/20 01:14:43;;;;;;;1.55;1.42;;;;;;;6.00;69.23;96210.88;6282696;28;20045;-62
2022/05/20 01:17:48;;;;;;;2.97;1.92;;;;;;;6.15;68.68;96217.84;6285136;28;20067;-63
2022/05/20 01:20:55;;;;;;;2.60;2.00;;;;;;;6.19;68.49;96224.56;6288912;28;20045;-62
2022/05/20 01:24:00;;;;;;;1.20;1.10;;;;;;;6.30;68.22;96227.38;6285597;28;20396;-63
2022/05/20 01:27:04;;;;;;;1.75;1.30;;;;;;;6.09;68.76;96226.03;6282883;28;20040;-63
2022/05/20 01:30:06;;;;;;;1.33;1.10;;;;;;;6.25;68.23;96218.97;6284889;28;20051;-62
2022/05/20 01:33:10;;;;;;;;;;;;;;;6.29;68.02;96223.09;6278629;28;20041;-61
2022/05/20 01:36:25;;;;;;;0.60;0.60;;;;;;;6.44;67.48;96230.97;6272549;28;19927;-61
2022/05/20 01:39:26;;;;;;;1.05;0.98;;;;;;;6.32;68.01;96237.75;6279090;28;20403;-63
2022/05/20 01:43:02;;;;;;;1.88;1.27;;;;;;;6.38;67.65;96241.78;6285416;28;20040;-62
2022/05/20 01:46:27;;;;;;;1.35;1.00;;;;;;;6.46;67.20;96245.66;6274652;28;20041;-62
2022/05/20 01:49:40;;;;;;;0.93;0.85;;;;;;;6.44;66.99;96249.28;6278002;28;20051;-63
2022/05/20 01:53:01;;;;;;;1.20;1.10;;;;;;;6.64;65.69;96248.09;6283778;28;20139;-62
2022/05/20 01:56:29;;;;;;;2.10;0.95;;;;;;;6.81;65.03;96239.25;6283912;28;20068;-62
2022/05/20 01:59:38;;;;;;;7.35;4.38;;;;;;;6.61;65.47;96237.81;6267034;28;20135;-62
2022/05/20 02:02:50;;;;;;;8.60;5.50;;;;;;;6.61;64.87;96241.28;6281611;28;20068;-63
2022/05/20 02:06:00;;;;;;;2.80;1.95;;;;;;;6.70;64.28;96243.34;6289896;28;20053;-62
2022/05/20 02:09:11;;;;;;;1.10;0.98;;;;;;;6.80;63.51;96230.56;6285111;28;20174;-62
2022/05/20 02:12:18;;;;;;;1.33;1.13;;;;;;;6.86;62.76;96226.75;6284257;28;20045;-61
2022/05/20 02:15:33;;;;;;;0.93;0.80;;;;;;;6.86;63.05;96221.53;6281865;28;20136;-62
2022/05/20 02:18:52;;;;;;;1.20;1.02;;;;;;;7.00;62.71;96239.84;6282029;28;20052;-62
2022/05/20 02:21:57;;;;;;;0.88;0.88;;;;;;;6.98;62.22;96226.00;6285393;28;20056;-62
2022/05/20 02:25:03;;;;;;;1.35;0.95;;;;;;;7.03;62.29;96231.78;6281322;28;20053;-63
2022/05/20 02:28:16;;;;;;;0.70;0.70;;;;;;;7.00;62.36;96236.38;6277858;28;20052;-63
2022/05/20 02:31:31;;;;;;;3.15;0.98;;;;;;;7.03;61.89;96233.56;6281167;28;20059;-62
2022/05/20 02:34:38;;;;;;;1.70;1.23;;;;;;;7.11;60.93;96250.47;6277174;28;20044;-62
2022/05/20 02:37:40;;;;;;;0.80;0.80;;;;;;;7.22;60.57;96248.97;6281650;28;20041;-62
2022/05/20 02:40:48;;;;;;;0.82;0.80;;;;;;;7.22;61.06;96249.84;6285140;28;20458;-62
2022/05/20 02:43:52;;;;;;;1.40;1.25;;;;;;;7.36;60.27;96259.44;6277686;28;20048;-62
2022/05/20 02:46:54;;;;;;;1.00;0.90;;;;;;;7.41;60.77;96265.22;6276260;28;20053;-63
2022/05/20 02:49:59;;;;;;;1.70;1.13;;;;;;;7.56;60.05;96273.91;6283198;28;20053;-61
2022/05/20 02:53:00;;;;;;;1.45;0.85;;;;;;;7.62;59.61;96273.53;6279543;28;20056;-62
2022/05/20 02:56:08;;;;;;;1.00;0.90;;;;;;;7.83;59.08;96263.47;6281140;28;20045;-62
2022/05/20 03:06:03;;;;;;;2.42;0.90;;;;;;;8.67;56.43;96286.00;6285975;28;20076;-62
2022/05/20 03:09:06;;;;;;;0.60;0.60;;;;;;;8.57;55.79;96277.06;6273752;28;20387;-62
2022/05/20 03:12:08;;;;;;;0.90;0.70;;;;;;;8.48;55.81;96279.34;6270394;28;20056;-63
2022/05/20 03:15:15;;;;;;;0.50;0.50;;;;;;;8.51;56.11;96273.91;6274495;28;20564;-62
2022/05/20 03:18:16;;;;;;;0.60;0.47;;;;;;;8.58;55.74;96290.09;6282513;28;20402;-62
2022/05/20 03:21:20;;;;;;;0.60;0.60;;;;;;;8.40;54.92;96284.25;6280217;28;20048;-62
2022/05/20 03:24:24;;;;;;;0.80;0.60;;;;;;;8.37;54.17;96289.66;6279975;28;20469;-62
2022/05/20 03:27:31;;;;;;;0.43;0.43;;;;;;;8.34;53.78;96295.13;6281695;28;20045;-62
2022/05/20 03:30:34;;;;;;;;;;;;;;;8.35;54.42;96298.56;6280031;28;20125;-62
2022/05/20 03:33:37;;;;;;;0.43;0.43;;;;;;;8.37;54.10;96301.94;6278870;28;19924;-62
2022/05/20 03:36:44;;;;;;;1.70;0.50;;;;;;;8.63;52.60;96313.38;6279481;28;20044;-63
2022/05/20 03:39:48;;;;;;;0.57;0.57;;;;;;;8.89;52.62;96315.13;6280027;28;20045;-62
2022/05/20 03:42:52;;;;;;;0.98;0.35;;;;;;;9.24;51.93;96314.50;6278649;28;20044;-62
2022/05/20 03:45:55;;;;;;;0.55;0.50;;;;;;;9.55;51.28;96320.28;6275903;28;20052;-62
2022/05/20 03:48:59;;;;;;;0.43;0.43;;;;;;;9.81;50.37;96316.66;6278100;28;20044;-61
2022/05/20 03:52:00;;;;;;;0.95;0.70;;;;;;;10.08;49.92;96331.41;6285294;28;20049;-62
2022/05/20 03:55:04;;;;;;;1.20;0.85;;;;;;;10.28;48.54;96343.16;6280595;28;20068;-62
2022/05/20 03:58:06;;;;;;;1.25;0.60;;;;;;;10.52;47.39;96345.78;6276990;28;20051;-62
2022/05/20 04:04:43;;;;;;;1.17;0.40;;;;;;;10.79;45.58;96349.03;6278518;28;20049;-63
2022/05/20 04:07:44;;;;;;;1.13;0.28;;;;;;;10.72;45.83;96345.16;6286082;28;20059;-61
2022/05/20 04:10:48;;;;;;;0.40;0.40;;;;;;;10.64;46.03;96344.06;6290419;28;20035;-62
2022/05/20 04:13:49;;;;;;;0.50;0.50;;;;;;;10.71;45.91;96340.88;6284362;28;20510;-63
2022/05/20 04:16:57;;;;;;;3.95;0.50;;;;;;;10.95;45.23;96347.88;6279042;28;20572;-62
2022/05/20 04:19:58;;;;;;;0.30;0.20;;;;;;;11.03;44.80;96348.16;6285757;28;20060;-62
2022/05/20 04:23:02;;;;;;;0.30;0.30;;;;;;;11.23;44.58;96344.84;6289814;28;20421;-63
2022/05/20 04:26:06;;;;;;;0.93;0.50;;;;;;;11.43;43.60;96345.13;6286826;28;20045;-62
2022/05/20 04:29:10;;;;;;;0.30;0.30;;;;;;;11.21;43.66;96344.16;6283867;28;20044;-62
2022/05/20 04:32:14;;;;;;;0.47;0.47;;;;;;;11.23;43.49;96352.75;6264814;28;20040;-62
2022/05/20 04:35:19;;;;;;;0.30;0.30;;;;;;;12.41;40.87;96350.63;6282463;28;20048;-62
2022/05/20 04:38:20;;;;;;;0.38;0.30;;;;;;;14.93;36.02;96355.63;6288982;28;20131;-62
2022/05/20 04:48:07;;;;;;;0.50;0.30;;;;;;;20.28;28.62;96354.66;6283921;28;20498;-62
2022/05/20 04:51:11;;;;;;;0.13;0.13;;;;;;;22.37;25.82;96366.03;6285083;28;20032;-62
2022/05/20 04:57:46;;;;;;;0.30;0.20;;;;;;;24.68;22.81;96358.63;6282417;28;20489;-63
2022/05/20 05:00:54;;;;;;;1.65;0.30;;;;;;;24.47;23.02;96357.72;6287019;28;20061;-61
2022/05/20 05:03:57;;;;;;;0.25;0.20;;;;;;;25.35;22.49;96365.91;6290022;28;20049;-61
2022/05/20 05:07:09;;;;;;;0.20;0.10;;;;;;;26.87;19.99;96380.31;6284952;28;20040;-61
2022/05/20 05:10:14;;;;;;;0.10;0.10;;;;;;;26.11;20.01;96370.94;6280425;28;20045;-62
2022/05/20 05:13:18;;;;;;;0.08;0.00;;;;;;;25.86;19.90;96368.03;6280578;28;20041;-61
2022/05/20 05:16:24;;;;;;;2.83;0.20;;;;;;;26.19;19.59;96361.81;6286398;28;20040;-61
2022/05/20 05:19:29;;;;;;;0.40;0.28;;;;;;;25.82;19.72;96355.16;6285836;28;20039;-61
2022/05/20 05:22:33;;;;;;;0.50;0.30;;;;;;;24.93;20.82;96351.69;6281388;28;20052;-62
2022/05/20 05:25:35;;;;;;;1.58;1.35;;;;;;;23.96;21.36;96363.38;6281119;28;20044;-62
2022/05/20 05:28:42;;;;;;;0.20;0.20;;;;;;;23.53;21.82;96360.72;6282365;28;20032;-61
2022/05/20 05:31:43;;;;;;;0.38;0.10;;;;;;;22.98;21.53;96364.91;6280423;28;20520;-62
2022/05/20 05:34:44;;;;;;;0.20;0.13;;;;;;;22.62;22.45;96363.03;6279932;28;20044;-62
2022/05/20 05:37:49;;;;;;;0.22;0.10;;;;;;;22.99;22.80;96361.25;6282233;28;20032;-62
2022/05/20 05:40:52;;;;;;;1.42;0.20;;;;;;;23.52;21.77;96369.78;6284145;28;20040;-62
2022/05/20 05:44:01;;;;;;;0.20;0.10;;;;;;;23.58;21.52;96374.41;6280643;28;20048;-63
2022/05/20 05:47:02;;;;;;;0.30;0.20;;;;;;;23.75;21.07;96380.38;6290373;28;20044;-61
2022/05/20 05:50:04;;;;;;;0.73;0.20;;;;;;;23.31;21.44;96382.22;6281846;28;20040;-62
2022/05/20 05:53:10;;;;;;;0.43;0.30;;;;;;;22.66;22.16;96364.31;6286055;28;20044;-62
2022/05/20 05:56:14;;;;;;;0.38;0.20;;;;;;;22.70;21.66;96364.78;6282573;28;20067;-62
2022/05/20 05:59:16;;;;;;;0.20;0.20;;;;;;;22.99;21.58;96369.28;6283891;28;20037;-62
2022/05/20 06:02:22;;;;;;;0.20;0.13;;;;;;;23.19;21.10;96375.69;6280940;28;20044;-61
2022/05/20 06:05:23;;;;;;;0.40;0.20;;;;;;;23.59;20.79;96384.13;6281527;28;20052;-62
2022/05/20 06:08:27;;;;;;;0.10;0.10;;;;;;;23.73;20.37;96372.50;6283294;28;20044;-62
2022/05/20 06:11:29;;;;;;;0.77;0.20;;;;;;;23.61;20.09;96379.41;6281026;28;20052;-62
2022/05/20 06:14:33;;;;;;;0.55;0.20;;;;;;;22.74;21.09;96372.25;6281785;28;20041;-62
2022/05/20 06:17:35;;;;;;;1.13;0.30;;;;;;;22.63;21.28;96378.09;6287041;28;20052;-61
2022/05/20 06:20:36;;;;;;;0.40;0.20;;;;;;;22.73;21.22;96367.94;6277069;28;20048;-62
2022/05/20 06:23:40;;;;;;;2.50;0.20;;;;;;;22.45;21.51;96372.28;6279626;28;20048;-62
2022/05/20 06:26:42;;;;;;;0.10;0.10;;;;;;;22.79;20.91;96375.22;6281289;28;20067;-61
2022/05/20 06:29:47;;;;;;;12.13;8.13;;;;;;;23.28;20.60;96377.22;6280535;28;20044;-61
2022/05/20 06:32:48;;;;;;;3.50;1.80;;;;;;;24.34;19.63;96379.13;6282405;28;20047;-62
2022/05/20 06:42:34;;;;;;;0.30;0.10;;;;;;;26.33;17.13;96374.22;6282159;28;20045;-62
2022/05/20 06:45:40;;;;;;;2.80;1.60;;;;;;;25.56;18.20;96347.91;6279955;28;20422;-61
2022/05/20 06:48:43;;;;;;;1.17;0.50;;;;;;;26.04;17.95;96356.63;6281166;28;20044;-62
2022/05/20 06:51:54;;;;;;;0.35;0.10;;;;;;;26.98;16.16;96365.31;6280001;28;20470;-62
2022/05/20 06:54:58;;;;;;;1.33;0.40;;;;;;;27.96;16.12;96363.00;6286165;28;20044;-62
2022/05/20 06:58:02;;;;;;;0.28;0.17;;;;;;;29.87;14.68;96373.66;6286722;28;20045;-61
2022/05/20 07:01:06;;;;;;;0.20;0.20;;;;;;;30.62;14.04;96372.13;6277181;28;20040;-61
2022/05/20 07:04:08;;;;;;;0.82;0.10;;;;;;;31.56;13.25;96366.41;6279032;28;20055;-62
2022/05/20 07:07:09;;;;;;;0.17;0.05;;;;;;;33.06;12.62;96361.06;6277108;28;20045;-62
2022/05/20 07:10:15;;;;;;;1.02;0.10;;;;;;;34.82;11.49;96367.75;6277061;28;20418;-62
2022/05/20 07:13:19;;;;;;;0.00;0.00;;;;;;;34.89;10.61;96364.81;6276513;28;20430;-62
2022/05/20 07:16:21;;;;;;;0.10;0.03;;;;;;;33.96;11.17;96353.25;6288734;28;20421;-61
2022/05/20 07:19:25;;;;;;;0.35;0.20;;;;;;;33.39;11.99;96340.16;6280481;28;20036;-61
2022/05/20 07:22:29;;;;;;;1.48;0.30;;;;;;;34.12;11.63;96351.50;6281506;28;20041;-62
2022/05/20 07:25:36;;;;;;;0.00;0.00;;;;;;;35.78;10.49;96354.69;6280504;28;20678;-62
2022/05/20 07:28:39;;;;;;;3.67;2.25;;;;;;;35.73;10.94;96352.78;6279981;28;20041;-63
2022/05/20 07:31:41;;;;;;;2.33;0.33;;;;;;;35.85;10.18;96352.50;6275878;28;20045;-62
2022/05/20 07:34:48;;;;;;;0.60;0.10;;;;;;;36.50;9.57;96359.03;6281405;28;20044;-61
2022/05/20 07:37:56;;;;;;;0.82;0.03;;;;;;;38.18;8.69;96351.03;6275356;28;20453;-61
2022/05/20 07:41:01;;;;;;;0.80;0.10;;;;;;;39.23;8.15;96337.53;6278476;28;20191;-62
2022/05/20 07:44:06;;;;;;;5.47;2.28;;;;;;;39.51;7.91;96347.59;6280822;28;20053;-60
2022/05/20 07:47:08;;;;;;;0.40;0.30;;;;;;;39.95;7.63;96337.31;6280861;28;20095;-61
2022/05/20 07:50:13;;;;;;;1.17;0.10;;;;;;;39.94;7.62;96341.19;6299097;28;20474;-60
2022/05/20 07:53:21;;;;;;;0.13;0.10;;;;;;;39.06;7.73;96340.78;6298729;28;20048;-59
2022/05/20 07:56:30;;;;;;;0.35;0.10;;;;;;;38.32;8.42;96341.00;6289318;28;20452;-59
2022/05/20 07:59:52;;;;;;;0.10;0.10;;;;;;;37.42;9.32;96350.47;6278464;28;20135;-61
2022/05/20 08:02:57;;;;;;;0.35;0.10;;;;;;;35.02;9.24;96334.25;6278496;28;20059;-61
2022/05/20 08:05:59;;;;;;;0.30;0.08;;;;;;;33.96;10.15;96336.88;6287734;28;20053;-60
2022/05/20 08:09:03;;;;;;;0.00;0.00;;;;;;;33.76;10.51;96334.00;6280708;28;20048;-60
2022/05/20 08:12:05;;;;;;;0.15;0.00;;;;;;;34.19;10.35;96329.41;6315307;28;20045;-61
2022/05/20 08:15:07;;;;;;;0.63;0.03;;;;;;;33.95;10.62;96329.78;6276069;28;20056;-60
2022/05/20 08:18:11;;;;;;;0.88;0.30;;;;;;;32.88;10.46;96320.50;6287536;28;20052;-59
2022/05/20 08:21:15;;;;;;;0.30;0.20;;;;;;;29.96;11.80;96307.13;6279261;28;20051;-60
2022/05/20 08:24:21;;;;;;;0.20;0.13;;;;;;;28.87;12.99;96298.34;6302108;28;20041;-60
2022/05/20 08:27:29;;;;;;;0.32;0.32;;;;;;;30.07;12.78;96297.34;6299098;28;20079;-60
2022/05/20 08:30:31;;;;;;;0.63;0.40;;;;;;;31.37;11.53;96294.31;6282103;28;20045;-59
2022/05/20 08:33:33;;;;;;;1.40;0.50;;;;;;;32.07;11.41;96310.13;6273297;28;20049;-60
2022/05/20 08:36:40;;;;;;;0.38;0.28;;;;;;;30.59;11.78;96310.97;6285442;28;20517;-65
2022/05/20 08:39:46;;;;;;;0.17;0.17;;;;;;;29.58;12.16;96293.16;6298780;28;20402;-62
2022/05/20 08:42:54;;;;;;;0.30;0.20;;;;;;;30.97;11.67;96306.03;6298172;28;20048;-60
2022/05/20 08:46:01;;;;;;;0.82;0.13;;;;;;;31.88;10.99;96311.47;6291314;28;20074;-60
2022/05/20 08:49:11;;;;;;;2.22;1.85;;;;;;;31.43;11.65;96296.88;6276149;28;20450;-60
2022/05/20 08:52:12;;;;;;;0.30;0.20;;;;;;;30.89;11.79;96280.09;6276085;28;20434;-60
2022/05/20 08:55:14;;;;;;;0.40;0.20;;;;;;;29.88;12.62;96276.81;6277674;28;20040;-60
2022/05/20 08:58:21;;;;;;;0.43;0.10;;;;;;;28.74;13.28;96277.69;6280205;28;20067;-61
2022/05/20 09:01:32;;;;;;;0.20;0.10;;;;;;;27.52;13.74;96270.22;6283976;28;20067;-60
2022/05/20 09:04:36;;;;;;;0.68;0.30;;;;;;;25.95;14.53;96258.13;6275360;28;20418;-59
2022/05/20 09:08:19;;;;;;;0.57;0.17;;;;;;;25.29;15.04;96264.41;6281338;28;20048;-60
2022/05/20 09:11:31;;;;;;;8.50;5.90;;;;;;;24.95;15.82;96268.91;6278596;28;20057;-61
2022/05/20 09:18:22;;;;;;;0.85;0.25;;;;;;;26.10;14.97;96276.75;6273877;28;20060;-61
2022/05/20 09:21:43;;;;;;;0.55;0.20;;;;;;;26.68;14.70;96274.09;6257721;28;20044;-61
2022/05/20 09:24:49;;;;;;;0.73;0.10;;;;;;;27.56;14.20;96275.19;6281245;28;20051;-60
2022/05/20 09:27:56;;;;;;;0.57;0.20;;;;;;;28.24;13.43;96290.56;6274875;28;20049;-59
2022/05/20 09:31:21;;;;;;;0.68;0.20;;;;;;;28.08;13.18;96273.88;6272748;28;20045;-61
2022/05/20 09:34:25;;;;;;;2.15;1.00;;;;;;;27.41;14.36;96278.22;6281290;28;20044;-60
2022/05/20 09:37:34;;;;;;;0.40;0.20;;;;;;;26.73;14.94;96266.19;6282913;28;20405;-61
2022/05/20 09:40:47;;;;;;;0.45;0.20;;;;;;;26.07;15.55;96266.41;6280377;28;20034;-61
2022/05/20 09:43:57;;;;;;;1.85;1.00;;;;;;;25.97;15.35;96256.91;6286562;28;20060;-61
2022/05/20 09:47:18;;;;;;;0.50;0.47;;;;;;;25.05;15.96;96247.81;6283190;28;20041;-59
2022/05/20 09:50:57;;;;;;;0.45;0.25;;;;;;;24.20;16.83;96250.03;6285499;28;20044;-61
2022/05/20 09:54:10;;;;;;;0.52;0.30;;;;;;;23.33;17.60;96263.91;6281142;28;20048;-60
2022/05/20 09:57:27;;;;;;;0.43;0.30;;;;;;;23.40;17.53;96258.59;6284051;28;20053;-59
2022/05/20 10:00:32;;;;;;;2.20;0.40;;;;;;;23.50;17.59;96254.53;6282662;28;20127;-60
2022/05/20 10:03:38;;;;;;;1.33;0.65;;;;;;;23.11;17.79;96240.81;6279608;28;20044;-60
2022/05/20 10:06:51;;;;;;;0.60;0.40;;;;;;;22.44;18.77;96252.69;6279137;28;20426;-60
2022/05/20 10:10:05;;;;;;;1.75;0.30;;;;;;;21.66;19.71;96241.56;6276382;28;20052;-61
2022/05/20 10:13:21;;;;;;;0.20;0.20;;;;;;;21.15;20.21;96246.72;6279169;28;20033;-60
2022/05/20 10:16:45;;;;;;;0.38;0.38;;;;;;;20.85;20.62;96236.75;6282555;28;20088;-59
2022/05/20 10:20:02;;;;;;;0.55;0.40;;;;;;;21.04;20.34;96235.44;6276100;28;20056;-60
2022/05/20 10:23:48;;;;;;;0.98;0.90;;;;;;;21.79;19.82;96243.59;6277396;28;20174;-61
2022/05/20 10:26:58;;;;;;;0.30;0.30;;;;;;;22.21;19.51;96229.53;6284792;28;20066;-60
2022/05/20 10:33:37;;;;;;;0.77;0.20;;;;;;;22.77;18.53;96234.28;6275094;28;20525;-60
2022/05/20 10:36:59;;;;;;;0.50;0.45;;;;;;;22.95;17.64;96233.81;6275075;28;20135;-59
2022/05/20 10:40:18;;;;;;;1.27;0.20;;;;;;;22.72;18.29;96217.91;6281480;28;20033;-60
2022/05/20 10:51:11;;;;;;;0.90;0.32;;;;;;;22.77;18.03;96221.69;6274747;28;20044;-60
2022/05/20 10:54:26;;;;;;;0.50;0.25;;;;;;;22.18;19.03;96211.16;6211018;28;20045;-60
2022/05/20 10:57:31;;;;;;;2.38;0.90;;;;;;;21.89;19.55;96212.84;6294692;28;20502;-60
2022/05/20 11:00:45;;;;;;;0.50;0.50;;;;;;;21.36;19.59;96196.00;6276075;28;20051;-59
2022/05/20 11:03:57;;;;;;;0.77;0.60;;;;;;;20.49;20.47;96198.22;6276271;28;20414;-60
2022/05/20 11:07:24;;;;;;;1.58;0.98;;;;;;;19.58;21.25;96195.16;6270229;28;20060;-59
2022/05/20 11:10:38;;;;;;;1.48;0.50;;;;;;;19.05;21.84;96193.94;6266403;28;20048;-60
2022/05/20 11:13:46;;;;;;;1.77;0.40;;;;;;;18.78;22.26;96193.31;6269236;28;20064;-60
2022/05/20 11:16:47;;;;;;;0.55;0.30;;;;;;;18.95;22.31;96178.13;6272325;28;20063;-60
2022/05/20 11:19:58;;;;;;;1.20;0.98;;;;;;;19.23;22.10;96175.91;6283779;28;20412;-60
2022/05/20 11:23:03;;;;;;;1.10;0.47;;;;;;;19.25;22.04;96179.25;6272161;28;20500;-60
2022/05/20 11:26:47;;;;;;;3.08;0.52;;;;;;;19.12;22.16;96165.59;6269274;28;20481;-60
2022/05/20 11:29:53;;;;;;;3.15;0.82;;;;;;;19.32;22.23;96174.06;6275559;28;20135;-60
2022/05/20 11:33:42;;;;;;;1.17;0.45;;;;;;;19.18;22.14;96167.59;6269098;28;20049;-60
2022/05/20 11:37:10;;;;;;;1.20;0.40;;;;;;;18.52;23.33;96156.13;6175064;28;20045;-62
2022/05/20 11:40:23;;;;;;;1.65;1.20;;;;;;;18.36;23.69;96146.31;6275644;28;20052;-62
2022/05/20 11:43:29;;;;;;;0.95;0.60;;;;;;;18.25;23.95;96141.28;6281564;28;20102;-61
2022/05/20 11:46:36;;;;;;;15.05;10.00;;;;;;;18.26;23.85;96145.66;6285677;28;20045;-62
2022/05/20 11:49:54;;;;;;;6.70;4.85;;;;;;;18.29;23.76;96134.66;6290051;28;20055;-65
2022/05/20 11:52:59;;;;;;;2.03;1.40;;;;;;;18.24;24.12;96136.16;6281190;28;20043;-62
2022/05/20 11:56:18;;;;;;;2.88;2.33;;;;;;;18.12;23.85;96148.97;6277678;28;20055;-64
2022/05/20 11:59:34;;;;;;;1.65;1.20;;;;;;;17.84;24.54;96130.59;6283612;28;20530;-62
2022/05/20 12:02:51;;;;;;;3.88;2.22;;;;;;;17.71;24.56;96131.00;6276325;28;20458;-62
2022/05/20 12:06:00;;;;;;;2.88;1.42;;;;;;;17.61;24.64;96108.22;6275457;28;20060;-61
2022/05/20 12:09:27;;;;;;;1.08;0.73;;;;;;;17.39;24.46;96109.63;6280171;28;20414;-60
2022/05/20 12:12:52;;;;;;;0.80;0.77;;;;;;;16.97;25.17;96103.28;6270064;28;20503;-62
2022/05/20 12:16:13;;;;;;;0.95;0.65;;;;;;;16.61;25.51;96100.72;6272522;28;20051;-61
2022/05/20 12:27:24;;;;;;;0.63;0.63;;;;;;;16.04;25.99;96081.69;6270827;28;20139;-60
2022/05/20 12:31:02;;;;;;;1.70;0.98;;;;;;;16.31;25.88;96094.03;6181841;28;20049;-61
2022/05/20 12:34:10;;;;;;;1.35;0.70;;;;;;;16.41;25.60;96096.59;6293325;28;20048;-61
2022/05/20 12:37:40;;;;;;;1.33;0.60;;;;;;;16.35;25.92;96095.38;6297327;28;20049;-61
2022/05/20 12:40:44;;;;;;;4.80;1.08;;;;;;;16.21;26.12;96097.75;6291630;28;20040;-62
2022/05/20 12:43:52;;;;;;;5.65;1.02;;;;;;;15.91;27.15;96092.69;6294226;28;20036;-65
2022/05/20 12:47:10;;;;;;;3.17;1.38;;;;;;;15.83;26.84;96086.47;6278735;28;20495;-62
2022/05/20 12:50:17;;;;;;;1.70;1.30;;;;;;;15.71;27.04;96081.41;6288555;28;20055;-61
2022/05/20 12:53:18;;;;;;;1.80;0.95;;;;;;;15.69;27.17;96067.44;6279854;28;20032;-63
2022/05/20 12:56:30;;;;;;;;;;;;;;;15.75;27.28;96067.84;6290617;28;20522;-63
2022/05/20 12:59:34;;;;;;;2.70;0.95;;;;;;;15.56;27.96;96061.63;6287867;28;20275;-62
2022/05/20 13:02:43;;;;;;;1.30;1.17;;;;;;;15.22;28.76;96054.31;6278861;28;20048;-64
2022/05/20 13:06:09;;;;;;;1.45;0.77;;;;;;;14.86;29.51;96047.25;6283916;28;20041;-61
2022/05/20 13:09:19;;;;;;;0.80;0.70;;;;;;;14.69;29.85;96041.75;6261240;28;20037;-62
2022/05/20 13:12:26;;;;;;;1.15;0.70;;;;;;;14.56;30.22;96043.88;6282702;28;20037;-62
2022/05/20 13:15:31;;;;;;;0.50;0.50;;;;;;;14.29;30.84;96044.63;6279038;28;20041;-63
2022/05/20 13:18:43;;;;;;;0.93;0.77;;;;;;;14.10;31.02;96050.78;6281899;28;20040;-61
2022/05/20 13:21:57;;;;;;;0.93;0.75;;;;;;;13.97;31.60;96044.94;6277057;28;20041;-63
2022/05/20 13:25:09;;;;;;;0.88;0.75;;;;;;;13.78;32.02;96051.91;6288147;28;20048;-63
2022/05/20 13:28:11;;;;;;;0.55;0.55;;;;;;;13.70;32.63;96033.25;6274896;28;20060;-62
2022/05/20 13:31:19;;;;;;;;;;;;;;;13.60;32.57;96037.72;6277804;28;20036;-62
2022/05/20 13:34:30;;;;;;;0.75;0.68;;;;;;;13.23;33.11;96046.28;6277308;28;19924;-63
2022/05/20 13:37:40;;;;;;;0.82;0.80;;;;;;;13.22;33.62;96056.00;6290377;28;20036;-62
2022/05/20 13:40:49;;;;;;;1.73;1.20;;;;;;;13.23;33.93;96046.28;6287971;28;20379;-62
2022/05/20 13:43:57;;;;;;;1.30;0.77;;;;;;;12.91;34.20;96051.72;6278823;28;20056;-62
2022/05/20 13:50:25;;;;;;;1.75;1.13;;;;;;;12.97;34.33;96049.41;6278842;28;20055;-62
2022/05/20 13:53:33;;;;;;;1.73;1.17;;;;;;;12.78;34.90;96046.69;6285505;28;20049;-68
2022/05/20 13:56:42;;;;;;;3.47;1.17;;;;;;;12.67;34.97;96038.88;6276382;28;20392;-63
2022/05/20 13:59:44;;;;;;;1.40;1.00;;;;;;;12.64;34.91;96033.84;6279221;28;20051;-64
2022/05/20 14:03:20;;;;;;;1.13;1.02;;;;;;;12.45;35.53;96034.59;6274454;28;20049;-63
2022/05/20 14:06:27;;;;;;;0.77;0.60;;;;;;;12.55;37.67;96031.03;6275675;28;20048;-63
2022/05/20 14:09:35;;;;;;;2.65;1.20;;;;;;;12.26;39.92;96027.44;6272724;28;20036;-63
2022/05/20 14:12:52;;;;;;;1.40;1.20;;;;;;;11.92;40.58;96038.19;6277414;28;20044;-64
2022/05/20 14:15:59;;;;;;;1.95;1.23;;;;;;;11.76;41.40;96016.66;6283131;28;20040;-63
2022/05/20 14:19:15;;;;;;;2.30;1.05;;;;;;;11.60;43.10;96023.19;6272659;28;20494;-62
2022/05/20 14:22:25;;;;;;;1.42;1.13;;;;;;;11.40;44.44;96013.47;6285733;28;20053;-59
2022/05/20 14:25:44;;;;;;;5.57;2.85;;;;;;;10.96;45.67;96000.31;6295588;28;20098;-59
2022/05/20 14:28:53;;;;;;;1.27;1.17;;;;;;;10.87;47.71;96008.09;6294547;28;20137;-60
2022/05/20 14:32:03;;;;;;;1.70;1.30;;;;;;;10.38;49.94;95997.03;6295184;28;20409;-60
2022/05/20 14:35:06;;;;;;;1.58;1.15;;;;;;;9.97;51.09;96002.84;6273288;28;20514;-59
2022/05/20 14:38:13;;;;;;;2.53;1.17;;;;;;;9.96;51.36;96003.78;6268319;28;20053;-60
2022/05/20 14:41:23;;;;;;;3.53;1.08;;;;;;;10.03;50.57;95997.94;6280480;28;20493;-60
2022/05/20 14:44:27;;;;;;;1.35;1.20;;;;;;;9.77;51.41;95986.78;6288933;28;20411;-60
2022/05/20 14:47:38;;;;;;;1.00;0.90;;;;;;;9.65;51.97;95982.44;6282655;28;20037;-60
2022/05/20 14:50:47;;;;;;;1.25;1.00;;;;;;;9.59;52.28;95978.50;6294770;28;20044;-61
2022/05/20 14:53:57;;;;;;;1.77;1.08;;;;;;;9.55;52.48;95960.47;6293642;28;20049;-60
2022/05/20 14:57:34;;;;;;;1.02;0.93;;;;;;;9.69;53.31;95959.44;6283044;28;20041;-60
2022/05/20 15:00:36;;;;;;;6.70;4.75;;;;;;;9.63;53.81;95958.09;6284746;28;20087;-60
2022/05/20 15:03:45;;;;;;;1.80;1.45;;;;;;;9.65;54.35;95951.78;6271847;28;20047;-60
2022/05/20 15:06:49;;;;;;;2.88;1.80;;;;;;;9.59;55.66;95956.66;6293390;28;20056;-60
2022/05/20 15:09:54;;;;;;;2.20;1.40;;;;;;;9.56;56.81;95943.75;6294303;28;20060;-59
2022/05/20 15:12:56;;;;;;;2.40;1.58;;;;;;;9.31;58.28;95947.38;6294338;28;20053;-60
2022/05/20 15:15:57;;;;;;;4.00;1.67;;;;;;;9.35;58.91;95954.09;6295368;28;20037;-61
2022/05/20 15:18:58;;;;;;;3.25;2.10;;;;;;;9.28;59.11;95953.69;6276117;28;20045;-61
2022/05/20 15:22:03;;;;;;;3.13;1.80;;;;;;;9.07;60.82;95948.25;6270098;28;20040;-60
2022/05/20 15:25:04;;;;;;;2.85;1.55;;;;;;;8.56;62.60;95945.84;6269707;28;20498;-60
2022/05/20 15:28:47;;;;;;;1.95;1.35;;;;;;;8.50;63.62;95944.50;6268862;28;20048;-59
2022/05/20 15:34:53;;;;;;;2.88;2.00;;;;;;;8.18;64.87;95930.16;6279205;28;20418;-61
2022/05/20 15:38:09;;;;;;;1.77;1.48;;;;;;;8.16;65.75;95921.59;6278250;28;20127;-59
2022/05/20 15:41:13;;;;;;;2.05;1.70;;;;;;;8.07;66.40;95923.91;6285860;28;20056;-60
2022/05/20 15:44:17;;;;;;;1.55;1.45;;;;;;;8.19;67.17;95931.84;6282388;28;20392;-60
2022/05/20 15:47:23;;;;;;;3.55;1.60;;;;;;;8.20;67.39;95936.16;6277010;28;20048;-59
2022/05/20 15:50:25;;;;;;;;;;;;;;;8.31;67.40;95947.53;6274968;28;20163;-59